sensor_id;sensor_type;location;lat;lon;timestamp;P1;durP1;ratioP1;P2;durP2;ratioP2
60318;SDS011;46163;52.306;5.634;2022-10-16T00:01:14;0.60;;;0.60;;
60318;SDS011;46163;52.306;5.634;2022-10-16T00:03:42;0.50;;;0.50;;
60318;SDS011;46163;52.306;5.634;2022-10-16T00:06:09;0.70;;;0.70;;
60318;SDS011;46163;52.306;5.634;2022-10-16T00:08:35;0.47;;;0.47;;
60318;SDS011;46163;52.306;5.634;2022-10-16T00:11:04;0.60;;;0.60;;
60318;SDS011;46163;52.306;5.634;2022-10-16T00:13:32;0.50;;;0.50;;
60318;SDS011;46163;52.306;5.634;2022-10-16T00:16:01;0.35;;;0.35;;
60318;SDS011;46163;52.306;5.634;2022-10-16T00:18:27;0.57;;;0.57;;
60318;SDS011;46163;52.306;5.634;2022-10-16T00:20:54;0.50;;;0.50;;
60318;SDS011;46163;52.306;5.634;2022-10-16T00:23:19;0.60;;;0.60;;
60318;SDS011;46163;52.306;5.634;2022-10-16T00:25:54;0.60;;;0.60;;
60318;SDS011;46163;52.306;5.634;2022-10-16T00:28:20;0.55;;;0.55;;
60318;SDS011;46163;52.306;5.634;2022-10-16T00:30:47;0.38;;;0.38;;
60318;SDS011;46163;52.306;5.634;2022-10-16T00:33:12;0.52;;;0.52;;
60318;SDS011;46163;52.306;5.634;2022-10-16T00:35:38;0.70;;;0.70;;
60318;SDS011;46163;52.306;5.634;2022-10-16T00:38:03;0.50;;;0.50;;
60318;SDS011;46163;52.306;5.634;2022-10-16T00:40:29;0.68;;;0.60;;
60318;SDS011;46163;52.306;5.634;2022-10-16T00:42:54;0.45;;;0.45;;
60318;SDS011;46163;52.306;5.634;2022-10-16T00:45:20;0.43;;;0.43;;
60318;SDS011;46163;52.306;5.634;2022-10-16T00:47:46;0.40;;;0.40;;
60318;SDS011;46163;52.306;5.634;2022-10-16T00:50:26;0.40;;;0.40;;
60318;SDS011;46163;52.306;5.634;2022-10-16T00:52:57;0.55;;;0.55;;
60318;SDS011;46163;52.306;5.634;2022-10-16T00:55:24;0.55;;;0.55;;
60318;SDS011;46163;52.306;5.634;2022-10-16T00:57:51;0.68;;;0.68;;
60318;SDS011;46163;52.306;5.634;2022-10-16T01:00:19;0.50;;;0.50;;
60318;SDS011;46163;52.306;5.634;2022-10-16T01:02:54;0.50;;;0.50;;
60318;SDS011;46163;52.306;5.634;2022-10-16T01:05:22;0.85;;;0.60;;
60318;SDS011;46163;52.306;5.634;2022-10-16T01:10:30;0.63;;;0.60;;
60318;SDS011;46163;52.306;5.634;2022-10-16T01:18:07;0.45;;;0.45;;
60318;SDS011;46163;52.306;5.634;2022-10-16T01:23:22;0.40;;;0.40;;
60318;SDS011;46163;52.306;5.634;2022-10-16T01:28:35;0.45;;;0.45;;
60318;SDS011;46163;52.306;5.634;2022-10-16T01:31:23;0.40;;;0.40;;
60318;SDS011;46163;52.306;5.634;2022-10-16T01:33:57;0.40;;;0.40;;
60318;SDS011;46163;52.306;5.634;2022-10-16T01:36:29;0.43;;;0.43;;
60318;SDS011;46163;52.306;5.634;2022-10-16T01:39:02;0.60;;;0.60;;
60318;SDS011;46163;52.306;5.634;2022-10-16T01:41:45;0.40;;;0.40;;
60318;SDS011;46163;52.306;5.634;2022-10-16T01:44:22;0.85;;;0.80;;
60318;SDS011;46163;52.306;5.634;2022-10-16T01:46:55;0.40;;;0.40;;
60318;SDS011;46163;52.306;5.634;2022-10-16T01:49:23;0.57;;;0.57;;
60318;SDS011;46163;52.306;5.634;2022-10-16T01:51:54;0.45;;;0.45;;
60318;SDS011;46163;52.306;5.634;2022-10-16T01:54:22;0.80;;;0.60;;
60318;SDS011;46163;52.306;5.634;2022-10-16T01:56:50;0.50;;;0.50;;
60318;SDS011;46163;52.306;5.634;2022-10-16T01:59:18;0.40;;;0.40;;
60318;SDS011;46163;52.306;5.634;2022-10-16T02:01:47;0.50;;;0.50;;
60318;SDS011;46163;52.306;5.634;2022-10-16T02:06:52;0.57;;;0.57;;
60318;SDS011;46163;52.306;5.634;2022-10-16T02:09:18;0.60;;;0.60;;
60318;SDS011;46163;52.306;5.634;2022-10-16T02:11:44;0.60;;;0.60;;
60318;SDS011;46163;52.306;5.634;2022-10-16T02:14:10;0.65;;;0.65;;
60318;SDS011;46163;52.306;5.634;2022-10-16T02:16:38;0.47;;;0.47;;
60318;SDS011;46163;52.306;5.634;2022-10-16T02:19:06;0.50;;;0.50;;
60318;SDS011;46163;52.306;5.634;2022-10-16T02:21:39;0.47;;;0.47;;
60318;SDS011;46163;52.306;5.634;2022-10-16T02:29:47;0.50;;;0.50;;
60318;SDS011;46163;52.306;5.634;2022-10-16T02:32:19;0.95;;;0.65;;
60318;SDS011;46163;52.306;5.634;2022-10-16T02:34:49;0.50;;;0.50;;
60318;SDS011;46163;52.306;5.634;2022-10-16T02:37:16;0.50;;;0.50;;
60318;SDS011;46163;52.306;5.634;2022-10-16T02:39:47;0.47;;;0.47;;
60318;SDS011;46163;52.306;5.634;2022-10-16T02:42:13;0.52;;;0.52;;
60318;SDS011;46163;52.306;5.634;2022-10-16T02:44:39;0.70;;;0.70;;
60318;SDS011;46163;52.306;5.634;2022-10-16T02:47:05;0.95;;;0.60;;
60318;SDS011;46163;52.306;5.634;2022-10-16T02:49:30;0.52;;;0.52;;
60318;SDS011;46163;52.306;5.634;2022-10-16T02:51:56;0.60;;;0.60;;
60318;SDS011;46163;52.306;5.634;2022-10-16T02:54:23;0.50;;;0.50;;
60318;SDS011;46163;52.306;5.634;2022-10-16T02:56:49;1.17;;;0.50;;
60318;SDS011;46163;52.306;5.634;2022-10-16T02:59:15;0.57;;;0.57;;
60318;SDS011;46163;52.306;5.634;2022-10-16T03:01:41;0.30;;;0.30;;
60318;SDS011;46163;52.306;5.634;2022-10-16T03:04:07;0.60;;;0.60;;
60318;SDS011;46163;52.306;5.634;2022-10-16T03:06:32;0.52;;;0.52;;
60318;SDS011;46163;52.306;5.634;2022-10-16T03:08:58;0.50;;;0.50;;
60318;SDS011;46163;52.306;5.634;2022-10-16T03:11:24;0.70;;;0.70;;
60318;SDS011;46163;52.306;5.634;2022-10-16T03:13:52;0.35;;;0.35;;
60318;SDS011;46163;52.306;5.634;2022-10-16T03:16:18;0.55;;;0.55;;
60318;SDS011;46163;52.306;5.634;2022-10-16T03:18:43;0.40;;;0.40;;
60318;SDS011;46163;52.306;5.634;2022-10-16T03:21:12;0.63;;;0.63;;
60318;SDS011;46163;52.306;5.634;2022-10-16T03:23:38;0.50;;;0.50;;
60318;SDS011;46163;52.306;5.634;2022-10-16T03:26:03;0.77;;;0.77;;
60318;SDS011;46163;52.306;5.634;2022-10-16T03:28:29;0.50;;;0.50;;
60318;SDS011;46163;52.306;5.634;2022-10-16T03:30:55;0.60;;;0.60;;
60318;SDS011;46163;52.306;5.634;2022-10-16T03:33:21;0.50;;;0.50;;
60318;SDS011;46163;52.306;5.634;2022-10-16T03:35:53;0.55;;;0.55;;
60318;SDS011;46163;52.306;5.634;2022-10-16T03:38:19;0.50;;;0.50;;
60318;SDS011;46163;52.306;5.634;2022-10-16T03:40:46;0.63;;;0.63;;
60318;SDS011;46163;52.306;5.634;2022-10-16T03:43:11;0.60;;;0.60;;
60318;SDS011;46163;52.306;5.634;2022-10-16T03:45:37;0.60;;;0.60;;
60318;SDS011;46163;52.306;5.634;2022-10-16T03:48:02;0.40;;;0.40;;
60318;SDS011;46163;52.306;5.634;2022-10-16T03:50:28;0.60;;;0.60;;
60318;SDS011;46163;52.306;5.634;2022-10-16T03:52:54;0.50;;;0.50;;
60318;SDS011;46163;52.306;5.634;2022-10-16T03:55:19;0.68;;;0.68;;
60318;SDS011;46163;52.306;5.634;2022-10-16T03:57:45;0.47;;;0.47;;
60318;SDS011;46163;52.306;5.634;2022-10-16T04:00:11;0.50;;;0.50;;
60318;SDS011;46163;52.306;5.634;2022-10-16T04:02:36;0.60;;;0.60;;
60318;SDS011;46163;52.306;5.634;2022-10-16T04:05:02;0.50;;;0.50;;
60318;SDS011;46163;52.306;5.634;2022-10-16T04:07:28;0.47;;;0.47;;
60318;SDS011;46163;52.306;5.634;2022-10-16T04:09:54;0.52;;;0.52;;
60318;SDS011;46163;52.306;5.634;2022-10-16T04:12:20;0.70;;;0.70;;
60318;SDS011;46163;52.306;5.634;2022-10-16T04:14:45;0.50;;;0.50;;
60318;SDS011;46163;52.306;5.634;2022-10-16T04:17:11;0.75;;;0.63;;
60318;SDS011;46163;52.306;5.634;2022-10-16T04:19:37;0.70;;;0.70;;
60318;SDS011;46163;52.306;5.634;2022-10-16T04:22:02;0.50;;;0.50;;
60318;SDS011;46163;52.306;5.634;2022-10-16T04:24:28;1.25;;;0.50;;
60318;SDS011;46163;52.306;5.634;2022-10-16T04:26:53;0.50;;;0.50;;
60318;SDS011;46163;52.306;5.634;2022-10-16T04:29:20;0.50;;;0.50;;
60318;SDS011;46163;52.306;5.634;2022-10-16T04:31:46;0.60;;;0.60;;
60318;SDS011;46163;52.306;5.634;2022-10-16T04:34:12;0.60;;;0.60;;
60318;SDS011;46163;52.306;5.634;2022-10-16T04:36:37;0.57;;;0.57;;
60318;SDS011;46163;52.306;5.634;2022-10-16T04:39:03;0.50;;;0.50;;
60318;SDS011;46163;52.306;5.634;2022-10-16T04:41:28;0.40;;;0.40;;
60318;SDS011;46163;52.306;5.634;2022-10-16T04:43:54;0.73;;;0.60;;
60318;SDS011;46163;52.306;5.634;2022-10-16T04:46:19;0.43;;;0.43;;
60318;SDS011;46163;52.306;5.634;2022-10-16T04:48:46;0.40;;;0.40;;
60318;SDS011;46163;52.306;5.634;2022-10-16T04:51:11;0.75;;;0.40;;
60318;SDS011;46163;52.306;5.634;2022-10-16T04:53:38;0.60;;;0.60;;
60318;SDS011;46163;52.306;5.634;2022-10-16T04:56:03;0.60;;;0.60;;
60318;SDS011;46163;52.306;5.634;2022-10-16T04:58:29;0.45;;;0.45;;
60318;SDS011;46163;52.306;5.634;2022-10-16T05:00:55;0.60;;;0.60;;
60318;SDS011;46163;52.306;5.634;2022-10-16T05:03:20;0.43;;;0.43;;
60318;SDS011;46163;52.306;5.634;2022-10-16T05:05:46;0.40;;;0.40;;
60318;SDS011;46163;52.306;5.634;2022-10-16T05:08:12;0.40;;;0.40;;
60318;SDS011;46163;52.306;5.634;2022-10-16T05:10:38;0.57;;;0.57;;
60318;SDS011;46163;52.306;5.634;2022-10-16T05:13:05;0.60;;;0.60;;
60318;SDS011;46163;52.306;5.634;2022-10-16T05:15:32;0.55;;;0.55;;
60318;SDS011;46163;52.306;5.634;2022-10-16T05:17:57;0.40;;;0.40;;
60318;SDS011;46163;52.306;5.634;2022-10-16T05:20:22;0.50;;;0.50;;
60318;SDS011;46163;52.306;5.634;2022-10-16T05:22:48;0.45;;;0.45;;
60318;SDS011;46163;52.306;5.634;2022-10-16T05:25:14;0.52;;;0.52;;
60318;SDS011;46163;52.306;5.634;2022-10-16T05:27:40;0.50;;;0.50;;
60318;SDS011;46163;52.306;5.634;2022-10-16T05:30:06;0.40;;;0.40;;
60318;SDS011;46163;52.306;5.634;2022-10-16T05:32:32;0.57;;;0.57;;
60318;SDS011;46163;52.306;5.634;2022-10-16T05:34:58;0.40;;;0.40;;
60318;SDS011;46163;52.306;5.634;2022-10-16T05:37:25;0.50;;;0.50;;
60318;SDS011;46163;52.306;5.634;2022-10-16T05:39:52;0.50;;;0.50;;
60318;SDS011;46163;52.306;5.634;2022-10-16T05:42:18;0.60;;;0.60;;
60318;SDS011;46163;52.306;5.634;2022-10-16T05:44:43;0.50;;;0.50;;
60318;SDS011;46163;52.306;5.634;2022-10-16T05:47:09;0.50;;;0.50;;
60318;SDS011;46163;52.306;5.634;2022-10-16T05:49:35;0.45;;;0.45;;
60318;SDS011;46163;52.306;5.634;2022-10-16T05:52:01;0.45;;;0.45;;
60318;SDS011;46163;52.306;5.634;2022-10-16T05:54:27;0.40;;;0.40;;
60318;SDS011;46163;52.306;5.634;2022-10-16T05:56:53;0.45;;;0.45;;
60318;SDS011;46163;52.306;5.634;2022-10-16T05:59:18;0.50;;;0.50;;
60318;SDS011;46163;52.306;5.634;2022-10-16T06:01:44;0.47;;;0.47;;
60318;SDS011;46163;52.306;5.634;2022-10-16T06:04:09;0.52;;;0.52;;
60318;SDS011;46163;52.306;5.634;2022-10-16T06:06:35;0.47;;;0.47;;
60318;SDS011;46163;52.306;5.634;2022-10-16T06:09:01;0.40;;;0.40;;
60318;SDS011;46163;52.306;5.634;2022-10-16T06:11:31;0.50;;;0.50;;
60318;SDS011;46163;52.306;5.634;2022-10-16T06:13:59;0.50;;;0.50;;
60318;SDS011;46163;52.306;5.634;2022-10-16T06:16:32;0.40;;;0.40;;
60318;SDS011;46163;52.306;5.634;2022-10-16T06:18:59;0.50;;;0.50;;
60318;SDS011;46163;52.306;5.634;2022-10-16T06:21:26;0.60;;;0.60;;
60318;SDS011;46163;52.306;5.634;2022-10-16T06:23:53;0.65;;;0.65;;
60318;SDS011;46163;52.306;5.634;2022-10-16T06:26:22;0.55;;;0.55;;
60318;SDS011;46163;52.306;5.634;2022-10-16T06:28:50;0.40;;;0.40;;
60318;SDS011;46163;52.306;5.634;2022-10-16T06:31:16;0.50;;;0.50;;
60318;SDS011;46163;52.306;5.634;2022-10-16T06:33:44;0.40;;;0.40;;
60318;SDS011;46163;52.306;5.634;2022-10-16T06:36:14;0.50;;;0.50;;
60318;SDS011;46163;52.306;5.634;2022-10-16T06:38:42;1.48;;;0.40;;
60318;SDS011;46163;52.306;5.634;2022-10-16T06:41:09;0.47;;;0.47;;
60318;SDS011;46163;52.306;5.634;2022-10-16T06:43:37;0.30;;;0.30;;
60318;SDS011;46163;52.306;5.634;2022-10-16T06:46:03;0.28;;;0.28;;
60318;SDS011;46163;52.306;5.634;2022-10-16T06:48:30;0.50;;;0.50;;
60318;SDS011;46163;52.306;5.634;2022-10-16T06:53:35;0.60;;;0.60;;
60318;SDS011;46163;52.306;5.634;2022-10-16T06:56:18;0.68;;;0.57;;
60318;SDS011;46163;52.306;5.634;2022-10-16T06:58:50;0.50;;;0.50;;
60318;SDS011;46163;52.306;5.634;2022-10-16T07:01:17;0.60;;;0.60;;
60318;SDS011;46163;52.306;5.634;2022-10-16T07:03:44;0.47;;;0.47;;
60318;SDS011;46163;52.306;5.634;2022-10-16T07:06:12;0.53;;;0.53;;
60318;SDS011;46163;52.306;5.634;2022-10-16T07:08:40;0.50;;;0.50;;
60318;SDS011;46163;52.306;5.634;2022-10-16T07:11:11;0.52;;;0.40;;
60318;SDS011;46163;52.306;5.634;2022-10-16T07:13:39;4.03;;;0.60;;
60318;SDS011;46163;52.306;5.634;2022-10-16T07:16:10;0.50;;;0.50;;
60318;SDS011;46163;52.306;5.634;2022-10-16T07:18:43;1.45;;;0.70;;
60318;SDS011;46163;52.306;5.634;2022-10-16T07:21:12;0.60;;;0.60;;
60318;SDS011;46163;52.306;5.634;2022-10-16T07:26:05;0.40;;;0.40;;
60318;SDS011;46163;52.306;5.634;2022-10-16T07:28:31;1.27;;;0.30;;
60318;SDS011;46163;52.306;5.634;2022-10-16T07:31:07;0.50;;;0.50;;
60318;SDS011;46163;52.306;5.634;2022-10-16T07:33:35;14.30;;;3.10;;
60318;SDS011;46163;52.306;5.634;2022-10-16T07:36:02;0.60;;;0.60;;
60318;SDS011;46163;52.306;5.634;2022-10-16T07:38:28;0.70;;;0.52;;
60318;SDS011;46163;52.306;5.634;2022-10-16T07:41:03;0.82;;;0.52;;
60318;SDS011;46163;52.306;5.634;2022-10-16T07:43:30;0.53;;;0.50;;
60318;SDS011;46163;52.306;5.634;2022-10-16T07:45:57;0.60;;;0.60;;
60318;SDS011;46163;52.306;5.634;2022-10-16T07:48:23;0.90;;;0.60;;
60318;SDS011;46163;52.306;5.634;2022-10-16T07:50:52;1.95;;;0.65;;
60318;SDS011;46163;52.306;5.634;2022-10-16T07:53:17;0.45;;;0.45;;
60318;SDS011;46163;52.306;5.634;2022-10-16T07:55:44;1.08;;;0.60;;
60318;SDS011;46163;52.306;5.634;2022-10-16T07:58:09;0.70;;;0.70;;
60318;SDS011;46163;52.306;5.634;2022-10-16T08:00:35;1.85;;;0.77;;
60318;SDS011;46163;52.306;5.634;2022-10-16T08:03:03;0.60;;;0.60;;
60318;SDS011;46163;52.306;5.634;2022-10-16T08:05:29;2.30;;;0.82;;
60318;SDS011;46163;52.306;5.634;2022-10-16T08:07:59;0.60;;;0.60;;
60318;SDS011;46163;52.306;5.634;2022-10-16T08:10:25;2.70;;;0.75;;
60318;SDS011;46163;52.306;5.634;2022-10-16T08:12:52;1.83;;;1.10;;
60318;SDS011;46163;52.306;5.634;2022-10-16T08:15:18;1.35;;;0.88;;
60318;SDS011;46163;52.306;5.634;2022-10-16T08:17:44;1.50;;;0.60;;
60318;SDS011;46163;52.306;5.634;2022-10-16T08:20:18;1.17;;;0.57;;
60318;SDS011;46163;52.306;5.634;2022-10-16T08:22:44;0.50;;;0.50;;
60318;SDS011;46163;52.306;5.634;2022-10-16T08:25:09;0.40;;;0.40;;
60318;SDS011;46163;52.306;5.634;2022-10-16T08:27:36;0.80;;;0.80;;
60318;SDS011;46163;52.306;5.634;2022-10-16T08:30:02;1.23;;;0.98;;
60318;SDS011;46163;52.306;5.634;2022-10-16T08:32:28;3.63;;;0.57;;
60318;SDS011;46163;52.306;5.634;2022-10-16T08:34:54;1.55;;;0.50;;
60318;SDS011;46163;52.306;5.634;2022-10-16T08:37:19;0.60;;;0.60;;
60318;SDS011;46163;52.306;5.634;2022-10-16T08:39:45;0.77;;;0.73;;
60318;SDS011;46163;52.306;5.634;2022-10-16T08:48:09;0.55;;;0.55;;
60318;SDS011;46163;52.306;5.634;2022-10-16T08:50:43;1.75;;;0.70;;
60318;SDS011;46163;52.306;5.634;2022-10-16T08:53:20;0.57;;;0.57;;
60318;SDS011;46163;52.306;5.634;2022-10-16T08:55:52;0.70;;;0.70;;
60318;SDS011;46163;52.306;5.634;2022-10-16T08:58:20;1.77;;;1.05;;
60318;SDS011;46163;52.306;5.634;2022-10-16T09:00:54;0.80;;;0.80;;
60318;SDS011;46163;52.306;5.634;2022-10-16T09:06:16;0.65;;;0.60;;
60318;SDS011;46163;52.306;5.634;2022-10-16T09:11:39;1.70;;;0.63;;
60318;SDS011;46163;52.306;5.634;2022-10-16T09:14:14;1.10;;;1.00;;
60318;SDS011;46163;52.306;5.634;2022-10-16T09:16:43;1.05;;;0.90;;
60318;SDS011;46163;52.306;5.634;2022-10-16T09:21:59;0.52;;;0.50;;
60318;SDS011;46163;52.306;5.634;2022-10-16T09:24:27;2.78;;;0.70;;
60318;SDS011;46163;52.306;5.634;2022-10-16T09:26:52;0.70;;;0.70;;
60318;SDS011;46163;52.306;5.634;2022-10-16T09:29:19;0.52;;;0.52;;
60318;SDS011;46163;52.306;5.634;2022-10-16T09:31:46;0.50;;;0.50;;
60318;SDS011;46163;52.306;5.634;2022-10-16T09:34:27;1.77;;;0.90;;
60318;SDS011;46163;52.306;5.634;2022-10-16T09:36:57;0.50;;;0.50;;
60318;SDS011;46163;52.306;5.634;2022-10-16T09:39:24;1.88;;;0.70;;
60318;SDS011;46163;52.306;5.634;2022-10-16T09:41:50;0.50;;;0.50;;
60318;SDS011;46163;52.306;5.634;2022-10-16T09:44:19;0.50;;;0.50;;
60318;SDS011;46163;52.306;5.634;2022-10-16T09:47:00;4.63;;;0.80;;
60318;SDS011;46163;52.306;5.634;2022-10-16T09:49:30;0.70;;;0.70;;
60318;SDS011;46163;52.306;5.634;2022-10-16T09:52:29;0.70;;;0.70;;
60318;SDS011;46163;52.306;5.634;2022-10-16T09:54:49;0.85;;;0.80;;
60318;SDS011;46163;52.306;5.634;2022-10-16T09:57:20;0.60;;;0.60;;
60318;SDS011;46163;52.306;5.634;2022-10-16T09:59:47;0.63;;;0.60;;
60318;SDS011;46163;52.306;5.634;2022-10-16T10:02:14;0.85;;;0.52;;
60318;SDS011;46163;52.306;5.634;2022-10-16T10:04:44;0.40;;;0.40;;
60318;SDS011;46163;52.306;5.634;2022-10-16T10:07:17;0.88;;;0.88;;
60318;SDS011;46163;52.306;5.634;2022-10-16T10:09:51;0.60;;;0.60;;
60318;SDS011;46163;52.306;5.634;2022-10-16T10:14:47;0.70;;;0.70;;
60318;SDS011;46163;52.306;5.634;2022-10-16T10:17:24;0.68;;;0.60;;
60318;SDS011;46163;52.306;5.634;2022-10-16T10:19:55;0.50;;;0.50;;
60318;SDS011;46163;52.306;5.634;2022-10-16T10:33:30;0.68;;;0.68;;
60318;SDS011;46163;52.306;5.634;2022-10-16T10:36:32;0.55;;;0.55;;
60318;SDS011;46163;52.306;5.634;2022-10-16T10:55:37;0.60;;;0.60;;
60318;SDS011;46163;52.306;5.634;2022-10-16T11:00:57;0.50;;;0.43;;
60318;SDS011;46163;52.306;5.634;2022-10-16T11:06:07;1.00;;;0.85;;
60318;SDS011;46163;52.306;5.634;2022-10-16T11:08:39;1.25;;;0.80;;
60318;SDS011;46163;52.306;5.634;2022-10-16T11:14:13;1.27;;;0.65;;
60318;SDS011;46163;52.306;5.634;2022-10-16T11:16:42;1.60;;;0.70;;
60318;SDS011;46163;52.306;5.634;2022-10-16T11:21:42;2.10;;;0.90;;
60318;SDS011;46163;52.306;5.634;2022-10-16T11:24:20;0.82;;;0.60;;
60318;SDS011;46163;52.306;5.634;2022-10-16T11:26:54;1.35;;;0.60;;
60318;SDS011;46163;52.306;5.634;2022-10-16T11:29:23;1.15;;;0.88;;
60318;SDS011;46163;52.306;5.634;2022-10-16T11:31:55;4.55;;;0.82;;
60318;SDS011;46163;52.306;5.634;2022-10-16T11:34:29;1.42;;;0.98;;
60318;SDS011;46163;52.306;5.634;2022-10-16T11:37:05;0.90;;;0.75;;
60318;SDS011;46163;52.306;5.634;2022-10-16T11:39:31;4.25;;;1.15;;
60318;SDS011;46163;52.306;5.634;2022-10-16T11:53:11;1.23;;;1.00;;
60318;SDS011;46163;52.306;5.634;2022-10-16T11:56:03;2.17;;;1.05;;
60318;SDS011;46163;52.306;5.634;2022-10-16T11:58:31;1.35;;;0.77;;
60318;SDS011;46163;52.306;5.634;2022-10-16T12:08:49;4.65;;;1.00;;
60318;SDS011;46163;52.306;5.634;2022-10-16T12:11:24;1.08;;;0.85;;
60318;SDS011;46163;52.306;5.634;2022-10-16T12:16:39;1.25;;;0.80;;
60318;SDS011;46163;52.306;5.634;2022-10-16T12:19:16;0.75;;;0.68;;
60318;SDS011;46163;52.306;5.634;2022-10-16T12:21:43;1.95;;;0.95;;
60318;SDS011;46163;52.306;5.634;2022-10-16T12:27:02;1.38;;;1.00;;
60318;SDS011;46163;52.306;5.634;2022-10-16T12:29:41;1.52;;;1.20;;
60318;SDS011;46163;52.306;5.634;2022-10-16T12:32:27;1.15;;;1.00;;
60318;SDS011;46163;52.306;5.634;2022-10-16T12:34:53;2.15;;;1.00;;
60318;SDS011;46163;52.306;5.634;2022-10-16T12:39:50;8.57;;;1.10;;
60318;SDS011;46163;52.306;5.634;2022-10-16T12:44:52;0.60;;;0.60;;
60318;SDS011;46163;52.306;5.634;2022-10-16T12:49:57;1.92;;;0.93;;
60318;SDS011;46163;52.306;5.634;2022-10-16T12:52:28;0.80;;;0.80;;
60318;SDS011;46163;52.306;5.634;2022-10-16T12:54:59;2.20;;;0.93;;
60318;SDS011;46163;52.306;5.634;2022-10-16T13:08:26;1.02;;;0.82;;
60318;SDS011;46163;52.306;5.634;2022-10-16T13:11:09;0.57;;;0.57;;
60318;SDS011;46163;52.306;5.634;2022-10-16T13:19:11;2.00;;;0.90;;
60318;SDS011;46163;52.306;5.634;2022-10-16T13:21:53;1.45;;;0.85;;
60318;SDS011;46163;52.306;5.634;2022-10-16T13:29:32;0.65;;;0.65;;
60318;SDS011;46163;52.306;5.634;2022-10-16T13:31:59;2.17;;;1.00;;
60318;SDS011;46163;52.306;5.634;2022-10-16T13:34:27;0.80;;;0.70;;
60318;SDS011;46163;52.306;5.634;2022-10-16T13:36:53;2.42;;;0.60;;
60318;SDS011;46163;52.306;5.634;2022-10-16T13:39:26;1.08;;;0.80;;
60318;SDS011;46163;52.306;5.634;2022-10-16T13:42:14;1.02;;;0.75;;
60318;SDS011;46163;52.306;5.634;2022-10-16T13:44:51;2.47;;;1.05;;
60318;SDS011;46163;52.306;5.634;2022-10-16T13:47:19;0.75;;;0.75;;
60318;SDS011;46163;52.306;5.634;2022-10-16T13:50:05;2.20;;;0.73;;
60318;SDS011;46163;52.306;5.634;2022-10-16T13:52:36;0.60;;;0.60;;
60318;SDS011;46163;52.306;5.634;2022-10-16T13:55:03;2.75;;;0.85;;
60318;SDS011;46163;52.306;5.634;2022-10-16T13:57:29;2.85;;;0.55;;
60318;SDS011;46163;52.306;5.634;2022-10-16T13:59:55;1.05;;;0.52;;
60318;SDS011;46163;52.306;5.634;2022-10-16T14:02:37;0.65;;;0.60;;
60318;SDS011;46163;52.306;5.634;2022-10-16T14:05:08;2.10;;;0.80;;
60318;SDS011;46163;52.306;5.634;2022-10-16T14:07:35;3.60;;;0.80;;
60318;SDS011;46163;52.306;5.634;2022-10-16T14:10:03;3.10;;;0.50;;
60318;SDS011;46163;52.306;5.634;2022-10-16T14:12:31;0.57;;;0.57;;
60318;SDS011;46163;52.306;5.634;2022-10-16T14:14:57;2.08;;;0.80;;
60318;SDS011;46163;52.306;5.634;2022-10-16T14:19:55;1.00;;;0.73;;
60318;SDS011;46163;52.306;5.634;2022-10-16T14:24:54;0.77;;;0.50;;
60318;SDS011;46163;52.306;5.634;2022-10-16T14:27:23;0.63;;;0.63;;
60318;SDS011;46163;52.306;5.634;2022-10-16T14:30:01;0.85;;;0.85;;
60318;SDS011;46163;52.306;5.634;2022-10-16T14:35:45;0.85;;;0.73;;
60318;SDS011;46163;52.306;5.634;2022-10-16T14:38:20;4.13;;;0.88;;
60318;SDS011;46163;52.306;5.634;2022-10-16T14:40:46;1.48;;;0.80;;
60318;SDS011;46163;52.306;5.634;2022-10-16T14:43:14;2.13;;;0.98;;
60318;SDS011;46163;52.306;5.634;2022-10-16T14:45:51;2.37;;;0.83;;
60318;SDS011;46163;52.306;5.634;2022-10-16T14:48:19;5.47;;;1.13;;
60318;SDS011;46163;52.306;5.634;2022-10-16T14:50:45;3.08;;;1.08;;
60318;SDS011;46163;52.306;5.634;2022-10-16T14:53:11;1.25;;;1.00;;
60318;SDS011;46163;52.306;5.634;2022-10-16T14:55:38;2.05;;;1.08;;
60318;SDS011;46163;52.306;5.634;2022-10-16T14:58:05;6.93;;;1.08;;
60318;SDS011;46163;52.306;5.634;2022-10-16T15:00:30;2.05;;;0.90;;
60318;SDS011;46163;52.306;5.634;2022-10-16T15:02:56;1.17;;;1.00;;
60318;SDS011;46163;52.306;5.634;2022-10-16T15:05:25;1.40;;;0.98;;
60318;SDS011;46163;52.306;5.634;2022-10-16T15:07:54;1.65;;;0.82;;
60318;SDS011;46163;52.306;5.634;2022-10-16T15:10:23;5.88;;;1.10;;
60318;SDS011;46163;52.306;5.634;2022-10-16T15:12:54;3.80;;;1.00;;
60318;SDS011;46163;52.306;5.634;2022-10-16T15:17:48;6.75;;;1.27;;
60318;SDS011;46163;52.306;5.634;2022-10-16T15:20:17;1.85;;;1.38;;
60318;SDS011;46163;52.306;5.634;2022-10-16T15:22:43;3.88;;;1.35;;
60318;SDS011;46163;52.306;5.634;2022-10-16T15:28:13;4.78;;;1.80;;
60318;SDS011;46163;52.306;5.634;2022-10-16T15:30:39;3.70;;;1.55;;
60318;SDS011;46163;52.306;5.634;2022-10-16T15:33:14;5.60;;;1.60;;
60318;SDS011;46163;52.306;5.634;2022-10-16T15:35:47;4.72;;;2.10;;
60318;SDS011;46163;52.306;5.634;2022-10-16T15:38:13;5.13;;;1.70;;
60318;SDS011;46163;52.306;5.634;2022-10-16T15:40:40;3.95;;;1.90;;
60318;SDS011;46163;52.306;5.634;2022-10-16T15:43:06;4.38;;;1.92;;
60318;SDS011;46163;52.306;5.634;2022-10-16T15:45:34;2.67;;;1.58;;
60318;SDS011;46163;52.306;5.634;2022-10-16T15:48:00;7.45;;;2.65;;
60318;SDS011;46163;52.306;5.634;2022-10-16T15:50:26;4.78;;;2.22;;
60318;SDS011;46163;52.306;5.634;2022-10-16T15:52:52;4.13;;;2.00;;
60318;SDS011;46163;52.306;5.634;2022-10-16T15:55:17;4.43;;;1.90;;
60318;SDS011;46163;52.306;5.634;2022-10-16T15:57:43;4.07;;;1.80;;
60318;SDS011;46163;52.306;5.634;2022-10-16T16:00:12;5.13;;;1.90;;
60318;SDS011;46163;52.306;5.634;2022-10-16T16:02:40;4.63;;;1.80;;
60318;SDS011;46163;52.306;5.634;2022-10-16T16:05:06;2.45;;;1.35;;
60318;SDS011;46163;52.306;5.634;2022-10-16T16:07:33;2.20;;;1.58;;
60318;SDS011;46163;52.306;5.634;2022-10-16T16:10:00;3.35;;;1.48;;
60318;SDS011;46163;52.306;5.634;2022-10-16T16:12:27;2.88;;;1.60;;
60318;SDS011;46163;52.306;5.634;2022-10-16T16:14:55;2.63;;;1.45;;
60318;SDS011;46163;52.306;5.634;2022-10-16T16:17:20;1.88;;;1.25;;
60318;SDS011;46163;52.306;5.634;2022-10-16T16:19:46;2.65;;;1.40;;
60318;SDS011;46163;52.306;5.634;2022-10-16T16:22:12;4.20;;;1.77;;
60318;SDS011;46163;52.306;5.634;2022-10-16T16:24:37;2.13;;;1.48;;
60318;SDS011;46163;52.306;5.634;2022-10-16T16:27:03;6.13;;;1.50;;
60318;SDS011;46163;52.306;5.634;2022-10-16T16:29:29;7.43;;;1.48;;
60318;SDS011;46163;52.306;5.634;2022-10-16T16:31:58;2.55;;;1.65;;
60318;SDS011;46163;52.306;5.634;2022-10-16T16:34:25;3.53;;;1.60;;
60318;SDS011;46163;52.306;5.634;2022-10-16T16:36:54;4.45;;;1.42;;
60318;SDS011;46163;52.306;5.634;2022-10-16T16:39:21;3.00;;;1.77;;
60318;SDS011;46163;52.306;5.634;2022-10-16T16:41:47;3.03;;;1.35;;
60318;SDS011;46163;52.306;5.634;2022-10-16T16:44:13;4.45;;;1.70;;
60318;SDS011;46163;52.306;5.634;2022-10-16T16:46:40;1.52;;;1.40;;
60318;SDS011;46163;52.306;5.634;2022-10-16T16:51:34;6.80;;;1.40;;
60318;SDS011;46163;52.306;5.634;2022-10-16T16:54:00;2.47;;;1.40;;
60318;SDS011;46163;52.306;5.634;2022-10-16T16:56:25;2.88;;;1.38;;
60318;SDS011;46163;52.306;5.634;2022-10-16T16:58:53;3.50;;;1.27;;
60318;SDS011;46163;52.306;5.634;2022-10-16T17:01:20;3.13;;;1.40;;
60318;SDS011;46163;52.306;5.634;2022-10-16T17:03:48;2.83;;;1.30;;
60318;SDS011;46163;52.306;5.634;2022-10-16T17:06:15;3.45;;;1.50;;
60318;SDS011;46163;52.306;5.634;2022-10-16T17:08:43;1.40;;;1.25;;
60318;SDS011;46163;52.306;5.634;2022-10-16T17:11:12;1.88;;;1.17;;
60318;SDS011;46163;52.306;5.634;2022-10-16T17:13:39;2.17;;;1.38;;
60318;SDS011;46163;52.306;5.634;2022-10-16T17:16:05;2.17;;;1.38;;
60318;SDS011;46163;52.306;5.634;2022-10-16T17:18:31;3.50;;;1.50;;
60318;SDS011;46163;52.306;5.634;2022-10-16T17:21:01;0.65;;;0.65;;
60318;SDS011;46163;52.306;5.634;2022-10-16T17:23:29;1.92;;;1.15;;
60318;SDS011;46163;52.306;5.634;2022-10-16T17:25:54;1.10;;;1.02;;
60318;SDS011;46163;52.306;5.634;2022-10-16T17:28:21;1.92;;;1.20;;